Time;durP1;ratioP1;P1;durP2;ratioP2;P2;SDS_P1;SDS_P2;PMS_P1;PMS_P2;Temp;Humidity;BMP_temperature;BMP_pressure;BME280_temperature;BME280_humidity;BME280_pressure;Samples;Min_cycle;Max_cycle;Signal;HPM_P1;HPM_P2
2023/04/22 00:01:24;;;;;;;2.75;2.08;;;12.60;61.40;;;;;;5031700;28;20471;-44
2023/04/22 00:03:56;;;;;;;2.08;1.88;;;12.50;61.40;;;;;;5026417;28;20126;-46
2023/04/22 00:06:26;;;;;;;2.13;1.75;;;12.50;62.00;;;;;;5025338;28;20041;-47
2023/04/22 00:08:53;;;;;;;1.50;1.40;;;12.50;61.40;;;;;;5028224;28;20076;-45
2023/04/22 00:11:19;;;;;;;1.90;1.58;;;12.40;61.40;;;;;;5042883;28;20037;-45
2023/04/22 00:13:48;;;;;;;1.90;1.80;;;12.40;61.50;;;;;;5049026;28;20041;-45
2023/04/22 00:16:15;;;;;;;1.90;1.80;;;12.40;61.50;;;;;;5041820;28;20449;-44
2023/04/22 00:18:42;;;;;;;2.35;2.15;;;12.40;61.60;;;;;;5027225;28;20041;-49
2023/04/22 00:21:23;;;;;;;;;;;;;;;;;;;;;
2023/04/22 00:23:50;;;;;;;2.03;1.90;;;12.40;61.80;;;;;;5046116;28;20057;-45
2023/04/22 00:26:17;;;;;;;1.83;1.73;;;12.40;61.80;;;;;;5033403;28;20045;-45
2023/04/22 00:28:49;;;;;;;1.65;1.52;;;12.40;61.80;;;;;;5030942;28;20083;-44
2023/04/22 00:31:16;;;;;;;1.60;1.50;;;12.40;61.70;;;;;;5023730;28;20489;-48
2023/04/22 00:33:45;;;;;;;2.65;1.60;;;12.40;61.70;;;;;;5017291;28;20559;-44
2023/04/22 00:36:14;;;;;;;1.20;1.10;;;12.40;61.70;;;;;;5035136;28;20052;-49
2023/04/22 00:38:47;;;;;;;2.28;1.50;;;12.40;61.70;;;;;;5048541;28;20045;-44
2023/04/22 00:41:14;;;;;;;2.45;1.73;;;12.30;61.90;;;;;;5048916;28;20500;-46
2023/04/22 00:43:43;;;;;;;1.52;1.42;;;12.40;61.70;;;;;;5031250;28;20121;-45
2023/04/22 00:46:17;;;;;;;2.37;1.90;;;12.40;61.80;;;;;;5020638;28;20036;-44
2023/04/22 00:48:58;;;;;;;1.67;1.58;;;12.40;61.80;;;;;;5012033;28;20425;-46
2023/04/22 00:51:24;;;;;;;1.77;1.67;;;12.40;61.70;;;;;;5018851;28;20038;-46
2023/04/22 00:53:51;;;;;;;1.92;1.67;;;12.30;61.60;;;;;;5027181;28;20572;-44
2023/04/22 00:56:22;;;;;;;1.55;1.45;;;12.30;61.70;;;;;;5035112;28;20065;-48
2023/04/22 00:58:49;;;;;;;1.52;1.42;;;12.30;61.70;;;;;;5052101;28;20045;-49
2023/04/22 01:01:18;;;;;;;1.67;1.58;;;12.30;61.70;;;;;;5040028;28;20045;-49
2023/04/22 01:03:46;;;;;;;2.10;2.00;;;12.30;61.90;;;;;;5031940;28;20353;-49
2023/04/22 01:06:18;;;;;;;2.67;1.90;;;12.30;61.80;;;;;;5011556;28;20042;-49
2023/04/22 01:08:47;;;;;;;3.50;2.03;;;12.30;62.00;;;;;;5015673;28;20148;-47
2023/04/22 01:11:14;;;;;;;2.05;1.80;;;12.30;61.90;;;;;;5052260;28;20041;-46
2023/04/22 01:13:46;;;;;;;2.22;1.98;;;12.30;61.90;;;;;;5034878;28;20064;-44
2023/04/22 01:16:18;;;;;;;1.98;1.88;;;12.30;62.20;;;;;;5030780;28;20040;-49
2023/04/22 01:18:45;;;;;;;2.78;2.58;;;12.30;62.10;;;;;;5050179;28;20041;-45
2023/04/22 01:21:15;;;;;;;3.70;2.65;;;12.30;62.30;;;;;;5034577;28;20037;-46
2023/04/22 01:23:45;;;;;;;3.55;2.92;;;12.30;62.50;;;;;;5027147;28;20527;-43
2023/04/22 01:26:12;;;;;;;3.65;3.35;;;12.30;62.40;;;;;;5014892;28;20052;-43
2023/04/22 01:28:38;;;;;;;2.70;2.50;;;12.30;62.40;;;;;;5052540;28;20413;-46
2023/04/22 01:31:05;;;;;;;2.67;2.45;;;12.30;62.40;;;;;;5051996;28;20049;-46
2023/04/22 01:33:33;;;;;;;2.88;2.55;;;12.30;63.20;;;;;;5042594;28;20038;-47
2023/04/22 01:36:00;;;;;;;2.75;2.55;;;12.30;62.60;;;;;;5034074;28;20056;-46
2023/04/22 01:38:27;;;;;;;2.60;2.40;;;12.30;62.60;;;;;;5052154;28;20722;-47
2023/04/22 01:40:54;;;;;;;3.45;3.20;;;12.30;62.60;;;;;;5033740;28;20052;-43
2023/04/22 01:43:21;;;;;;;4.32;2.55;;;12.30;62.60;;;;;;5013846;28;20050;-43
2023/04/22 01:45:49;;;;;;;3.55;2.90;;;12.30;62.60;;;;;;5039010;28;20052;-44
2023/04/22 01:48:18;;;;;;;3.45;3.25;;;12.30;62.60;;;;;;5033723;28;20044;-46
2023/04/22 01:50:45;;;;;;;4.10;3.70;;;12.30;62.90;;;;;;5021482;28;20050;-43
2023/04/22 01:53:15;;;;;;;4.20;3.85;;;12.30;62.90;;;;;;5027274;28;20060;-44
2023/04/22 01:55:43;;;;;;;4.85;3.90;;;12.30;63.10;;;;;;5029686;28;20103;-49
2023/04/22 01:58:13;;;;;;;5.53;4.88;;;12.30;63.30;;;;;;5042007;28;20033;-43
2023/04/22 02:00:43;;;;;;;4.93;4.53;;;12.30;63.40;;;;;;5013495;28;20080;-45
2023/04/22 02:03:09;;;;;;;4.20;3.90;;;12.30;63.40;;;;;;5045764;28;20050;-48
2023/04/22 02:05:37;;;;;;;4.28;3.95;;;12.30;63.30;;;;;;5012681;28;20095;-45
2023/04/22 02:08:05;;;;;;;4.60;4.07;;;12.30;63.20;;;;;;5017927;28;20055;-45
2023/04/22 02:10:32;;;;;;;4.32;3.92;;;12.30;63.20;;;;;;5033385;28;20037;-45
2023/04/22 02:12:59;;;;;;;5.13;4.63;;;12.30;63.10;;;;;;5034689;28;20094;-48
2023/04/22 02:15:26;;;;;;;4.72;3.97;;;12.30;63.00;;;;;;5018106;28;20128;-48
2023/04/22 02:17:53;;;;;;;4.70;4.28;;;12.30;63.10;;;;;;5050571;28;20095;-48
2023/04/22 02:20:22;;;;;;;4.97;4.47;;;12.30;63.00;;;;;;5051159;28;20045;-44
2023/04/22 02:22:49;;;;;;;4.38;3.97;;;12.30;63.20;;;;;;5029824;28;20045;-46
2023/04/22 02:25:19;;;;;;;4.30;3.88;;;12.30;63.20;;;;;;5017069;28;20051;-44
2023/04/22 02:27:49;;;;;;;4.57;4.18;;;12.30;63.20;;;;;;5031543;28;20045;-45
2023/04/22 02:30:15;;;;;;;4.22;3.92;;;12.30;63.20;;;;;;5033915;28;20072;-45
2023/04/22 02:32:44;;;;;;;4.15;3.85;;;12.20;63.10;;;;;;5033958;28;20041;-44
2023/04/22 02:35:18;;;;;;;3.85;3.55;;;12.30;63.10;;;;;;5028260;28;20045;-44
2023/04/22 02:37:49;;;;;;;4.13;3.72;;;12.20;63.10;;;;;;5032611;28;20052;-44
2023/04/22 02:40:17;;;;;;;4.88;4.35;;;12.20;63.10;;;;;;5050694;28;20098;-45
2023/04/22 02:42:44;;;;;;;5.57;4.50;;;12.20;63.10;;;;;;5022231;28;20166;-47
2023/04/22 02:45:11;;;;;;;4.85;3.65;;;12.20;63.10;;;;;;5035379;28;20090;-47
2023/04/22 02:47:40;;;;;;;4.32;3.92;;;12.20;63.10;;;;;;5032322;28;20108;-48
2023/04/22 02:50:09;;;;;;;4.97;4.47;;;12.20;63.20;;;;;;5032585;28;20053;-45
2023/04/22 02:52:43;;;;;;;5.97;4.32;;;12.20;63.20;;;;;;5013035;28;20140;-48
2023/04/22 02:55:12;;;;;;;4.95;4.28;;;12.20;63.20;;;;;;5033268;28;20058;-45
2023/04/22 02:57:44;;;;;;;;;;;12.20;63.40;;;;;;5042526;28;20053;-44
2023/04/22 03:00:12;;;;;;;5.85;5.30;;;12.20;63.80;;;;;;5024135;28;19932;-46
2023/04/22 03:02:38;;;;;;;5.93;4.97;;;12.20;63.20;;;;;;5021850;28;20517;-44
2023/04/22 03:05:13;;;;;;;5.78;5.05;;;12.20;63.60;;;;;;5009720;28;20041;-46
2023/04/22 03:07:40;;;;;;;5.97;5.38;;;12.20;63.60;;;;;;5017694;28;20493;-45
2023/04/22 03:10:08;;;;;;;5.63;4.88;;;12.20;63.60;;;;;;5033311;28;20056;-45
2023/04/22 03:12:34;;;;;;;4.55;4.10;;;12.20;63.60;;;;;;5033455;28;20132;-47
2023/04/22 03:15:02;;;;;;;5.28;4.78;;;12.20;63.60;;;;;;5031649;28;20497;-44
2023/04/22 03:17:30;;;;;;;4.68;4.15;;;12.20;63.60;;;;;;5014676;28;20082;-45
2023/04/22 03:20:07;;;;;;;4.90;4.50;;;12.20;63.60;;;;;;5029437;28;20106;-48
2023/04/22 03:22:36;;;;;;;5.18;4.70;;;12.20;63.60;;;;;;5049664;28;20047;-44
2023/04/22 03:25:05;;;;;;;4.78;4.28;;;12.20;63.60;;;;;;5015070;28;20615;-45
2023/04/22 03:27:32;;;;;;;4.18;3.78;;;12.20;64.20;;;;;;5029066;28;20588;-44
2023/04/22 03:29:59;;;;;;;5.15;4.43;;;12.20;63.60;;;;;;5031857;28;20040;-45
2023/04/22 03:32:28;;;;;;;5.68;5.00;;;12.20;63.70;;;;;;5017453;28;20037;-45
2023/04/22 03:35:10;;;;;;;4.97;4.57;;;12.20;63.90;;;;;;5013725;28;20091;-44
2023/04/22 03:37:40;;;;;;;5.68;5.18;;;12.20;63.80;;;;;;5031945;28;20056;-45
2023/04/22 03:40:10;;;;;;;6.15;5.53;;;12.20;63.90;;;;;;5031572;28;20512;-47
2023/04/22 03:42:45;;;;;;;5.10;4.60;;;12.20;63.90;;;;;;5014496;28;20521;-44
2023/04/22 03:45:12;;;;;;;5.30;4.90;;;12.10;64.00;;;;;;5026131;28;20949;-45
2023/04/22 03:47:44;;;;;;;5.30;4.55;;;12.20;63.90;;;;;;5030941;28;20617;-48
2023/04/22 03:50:20;;;;;;;5.47;4.97;;;12.10;63.70;;;;;;5031554;28;20037;-44
2023/04/22 03:52:49;;;;;;;5.65;4.80;;;12.10;64.40;;;;;;5014490;28;20041;-44
2023/04/22 03:55:18;;;;;;;6.72;5.20;;;12.20;63.90;;;;;;5016100;28;20052;-44
2023/04/22 03:57:46;;;;;;;5.38;4.88;;;12.10;64.00;;;;;;5031991;28;20598;-47
2023/04/22 04:00:13;;;;;;;5.88;5.28;;;12.10;64.00;;;;;;5030836;28;20048;-48
2023/04/22 04:02:40;;;;;;;7.50;5.32;;;12.10;64.10;;;;;;5032680;28;20049;-45
2023/04/22 04:05:10;;;;;;;5.88;5.20;;;12.10;64.10;;;;;;5016458;28;20132;-43
2023/04/22 04:07:40;;;;;;;7.95;5.28;;;12.10;64.20;;;;;;5014073;28;20040;-48
2023/04/22 04:10:09;;;;;;;5.20;4.70;;;12.10;64.20;;;;;;5023676;28;20095;-43
2023/04/22 04:12:38;;;;;;;5.53;5.03;;;12.10;64.20;;;;;;5027402;28;20526;-45
2023/04/22 04:15:07;;;;;;;7.05;5.53;;;12.10;64.30;;;;;;5031320;28;20147;-44
2023/04/22 04:17:35;;;;;;;6.28;5.68;;;12.10;64.40;;;;;;5009041;28;20045;-46
2023/04/22 04:20:03;;;;;;;5.82;5.20;;;12.10;64.40;;;;;;5030983;28;20072;-44
2023/04/22 04:22:30;;;;;;;5.80;4.93;;;12.10;64.50;;;;;;5032644;28;20041;-44
2023/04/22 04:25:00;;;;;;;6.95;5.88;;;12.10;64.50;;;;;;5010756;28;20129;-44
2023/04/22 04:27:38;;;;;;;6.43;5.00;;;12.10;64.60;;;;;;5026266;28;20098;-44
2023/04/22 04:30:09;;;;;;;6.65;5.03;;;12.10;64.60;;;;;;5031313;28;20059;-45
2023/04/22 04:32:48;;;;;;;7.20;5.07;;;12.20;64.70;;;;;;5011187;28;20056;-49
2023/04/22 04:35:19;;;;;;;6.07;5.47;;;12.10;64.60;;;;;;5012318;28;20057;-44
2023/04/22 04:37:52;;;;;;;5.85;5.25;;;12.20;64.90;;;;;;5045758;28;20128;-46
2023/04/22 04:40:20;;;;;;;10.02;6.03;;;12.20;65.40;;;;;;5047657;28;20037;-44
2023/04/22 04:43:07;;;;;;;7.03;5.97;;;12.20;64.90;;;;;;5008254;28;20108;-46
2023/04/22 04:45:45;;;;;;;8.57;6.05;;;12.20;64.90;;;;;;5014028;28;20045;-45
2023/04/22 04:48:18;;;;;;;8.68;7.15;;;12.20;65.00;;;;;;5031653;28;20060;-45
2023/04/22 04:50:52;;;;;;;7.78;6.68;;;12.20;65.10;;;;;;5031130;28;20048;-45
2023/04/22 04:53:21;;;;;;;8.20;6.90;;;12.20;65.20;;;;;;5021522;28;20083;-47
2023/04/22 04:55:48;;;;;;;8.13;7.25;;;12.20;65.30;;;;;;5035690;28;20041;-44
2023/04/22 04:58:21;;;;;;;8.80;7.68;;;12.20;65.40;;;;;;5031611;28;20033;-45
2023/04/22 05:00:58;;;;;;;9.07;7.75;;;12.20;65.40;;;;;;5030993;28;20072;-45
2023/04/22 05:03:25;;;;;;;10.77;8.95;;;12.30;65.60;;;;;;5002599;28;20069;-48
2023/04/22 05:05:53;;;;;;;10.38;8.68;;;12.30;65.70;;;;;;5029957;28;20064;-45
2023/04/22 05:08:20;;;;;;;9.80;8.23;;;12.30;65.80;;;;;;5033753;28;20025;-43
2023/04/22 05:10:48;;;;;;;10.75;8.73;;;12.30;66.00;;;;;;5031007;28;20044;-44
2023/04/22 05:13:17;;;;;;;13.07;9.38;;;12.40;66.10;;;;;;5049643;28;21495;-46
2023/04/22 05:15:46;;;;;;;12.13;10.15;;;12.40;66.30;;;;;;5015700;28;20085;-48
2023/04/22 05:18:12;;;;;;;17.25;10.27;;;12.40;66.40;;;;;;5024611;28;20509;-46
2023/04/22 05:20:41;;;;;;;11.23;9.55;;;12.50;66.50;;;;;;5030615;28;20156;-46
2023/04/22 05:23:08;;;;;;;13.23;10.63;;;12.50;66.60;;;;;;5032003;28;20475;-44
2023/04/22 05:25:35;;;;;;;12.07;10.25;;;12.60;66.70;;;;;;5013363;28;20425;-45
2023/04/22 05:28:07;;;;;;;11.85;10.52;;;12.60;66.80;;;;;;5021461;28;20115;-48
2023/04/22 05:30:44;;;;;;;12.30;10.48;;;12.60;67.50;;;;;;5022098;28;20045;-47
2023/04/22 05:33:11;;;;;;;12.63;10.80;;;12.70;67.20;;;;;;5025051;28;20042;-46
2023/04/22 05:35:41;;;;;;;12.60;10.48;;;12.70;67.10;;;;;;5023999;28;20045;-47
2023/04/22 05:38:10;;;;;;;15.40;11.02;;;12.80;67.30;;;;;;5029794;28;20069;-46
2023/04/22 05:40:39;;;;;;;14.55;12.00;;;12.80;67.40;;;;;;5019100;28;20049;-46
2023/04/22 05:43:08;;;;;;;18.10;13.50;;;12.90;67.60;;;;;;5025761;28;20052;-47
2023/04/22 05:45:44;;;;;;;14.05;12.15;;;12.90;68.30;;;;;;5033153;28;20048;-46
2023/04/22 05:48:17;;;;;;;14.82;12.05;;;13.00;67.90;;;;;;5019703;28;20049;-46
2023/04/22 05:50:57;;;;;;;13.80;10.85;;;13.00;67.80;;;;;;5022691;28;20049;-50
2023/04/22 05:53:27;;;;;;;15.00;10.77;;;13.10;67.80;;;;;;5025155;28;20041;-45
2023/04/22 05:56:01;;;;;;;13.50;10.55;;;13.10;67.80;;;;;;5020406;28;20720;-48
2023/04/22 05:58:28;;;;;;;14.13;11.13;;;13.20;68.50;;;;;;5017299;28;20056;-48
2023/04/22 06:01:00;;;;;;;12.40;10.40;;;13.20;67.80;;;;;;4997649;28;20414;-47
2023/04/22 06:03:42;;;;;;;12.38;9.82;;;13.30;67.90;;;;;;5016150;28;20406;-50
2023/04/22 06:06:11;;;;;;;11.13;9.27;;;13.40;67.80;;;;;;5034235;28;20088;-46
2023/04/22 06:08:38;;;;;;;12.85;9.70;;;13.40;67.90;;;;;;5039615;28;20033;-45
2023/04/22 06:11:05;;;;;;;13.85;9.35;;;13.40;68.00;;;;;;5034131;28;20064;-50
2023/04/22 06:13:34;;;;;;;9.05;8.02;;;13.40;68.10;;;;;;5019461;28;20033;-50
2023/04/22 06:16:00;;;;;;;10.68;8.10;;;13.50;68.20;;;;;;5024833;28;20045;-47
2023/04/22 06:18:27;;;;;;;9.23;7.68;;;13.60;68.30;;;;;;5044770;28;20401;-48
2023/04/22 06:20:54;;;;;;;9.93;7.22;;;13.60;68.30;;;;;;5020186;28;20567;-46
2023/04/22 06:23:21;;;;;;;10.73;7.68;;;13.60;68.40;;;;;;5028585;28;20520;-46
2023/04/22 06:25:48;;;;;;;9.20;7.22;;;13.70;68.40;;;;;;5047108;28;20045;-48
2023/04/22 06:28:15;;;;;;;8.98;6.70;;;13.70;68.40;;;;;;5036515;28;20069;-47
2023/04/22 06:30:43;;;;;;;8.82;6.85;;;13.80;68.50;;;;;;5025343;28;20046;-48
2023/04/22 06:33:10;;;;;;;8.38;6.82;;;13.80;68.40;;;;;;5023629;28;20065;-48
2023/04/22 06:35:37;;;;;;;7.55;6.78;;;13.90;68.40;;;;;;5025199;28;20084;-46
2023/04/22 06:38:04;;;;;;;8.70;6.45;;;13.90;68.50;;;;;;5026565;28;20057;-46
2023/04/22 06:40:39;;;;;;;8.23;5.97;;;14.00;68.50;;;;;;5050096;28;20041;-48
2023/04/22 06:43:21;;;;;;;;;;;14.00;69.10;;;;;;5010030;28;20452;-45
2023/04/22 06:46:06;;;;;;;7.43;5.80;;;14.20;69.00;;;;;;5039412;28;19921;-45
2023/04/22 06:48:38;;;;;;;;;;;14.10;67.80;;;;;;5052145;28;20049;-49
2023/04/22 06:51:17;;;;;;;6.20;4.90;;;14.20;68.60;;;;;;5029071;28;20436;-50
2023/04/22 06:53:45;;;;;;;10.38;5.15;;;14.20;67.50;;;;;;5041822;28;20131;-47
2023/04/22 06:56:14;;;;;;;7.40;5.03;;;14.30;68.00;;;;;;5023398;28;20057;-46
2023/04/22 06:58:41;;;;;;;8.48;5.03;;;14.30;68.40;;;;;;5024133;28;20683;-46
2023/04/22 07:01:08;;;;;;;6.88;4.90;;;14.30;68.70;;;;;;5011068;28;20062;-49
2023/04/22 07:03:37;;;;;;;10.52;5.00;;;14.40;68.80;;;;;;5009090;28;20049;-45
2023/04/22 07:06:08;;;;;;;7.00;5.10;;;14.40;68.80;;;;;;5021392;28;20144;-48
2023/04/22 07:08:35;;;;;;;6.72;4.75;;;14.50;68.80;;;;;;5041000;28;20049;-47
2023/04/22 07:11:02;;;;;;;5.68;5.10;;;14.60;68.90;;;;;;5033830;28;20041;-47
2023/04/22 07:13:41;;;;;;;5.57;4.35;;;14.60;68.90;;;;;;5018907;28;20092;-49
2023/04/22 07:16:08;;;;;;;6.18;4.05;;;14.70;68.80;;;;;;5037808;28;20048;-46
2023/04/22 07:18:34;;;;;;;6.57;4.85;;;14.70;68.90;;;;;;5051663;28;20058;-46
2023/04/22 07:21:01;;;;;;;4.82;4.32;;;14.80;69.00;;;;;;5051504;28;20501;-50
2023/04/22 07:23:28;;;;;;;5.07;4.57;;;14.90;68.90;;;;;;5032368;28;20455;-46
2023/04/22 07:25:54;;;;;;;4.63;4.15;;;14.90;68.90;;;;;;5038194;28;20049;-47
2023/04/22 07:28:21;;;;;;;5.13;4.30;;;15.00;69.10;;;;;;5048006;28;20034;-46
2023/04/22 07:30:50;;;;;;;5.75;4.18;;;15.00;68.80;;;;;;5051879;28;20037;-45
2023/04/22 07:33:17;;;;;;;5.78;4.85;;;15.10;68.80;;;;;;5032673;28;20033;-46
2023/04/22 07:35:46;;;;;;;4.72;4.28;;;15.20;68.90;;;;;;5041894;28;20041;-50
2023/04/22 07:38:13;;;;;;;5.82;4.28;;;15.30;68.80;;;;;;5051206;28;20052;-49
2023/04/22 07:40:40;;;;;;;5.35;4.70;;;15.30;68.70;;;;;;5029771;28;20416;-50
2023/04/22 07:43:08;;;;;;;5.00;4.15;;;15.40;68.70;;;;;;5045284;28;20056;-46
2023/04/22 07:45:37;;;;;;;4.80;4.30;;;15.50;68.80;;;;;;5051377;28;20120;-50
2023/04/22 07:48:04;;;;;;;4.97;4.25;;;15.60;69.30;;;;;;5031501;28;20085;-46
2023/04/22 07:50:31;;;;;;;6.85;4.10;;;15.70;69.00;;;;;;5035215;28;20052;-47
2023/04/22 07:53:00;;;;;;;6.28;4.88;;;15.80;69.10;;;;;;5041122;28;20493;-45
2023/04/22 07:55:26;;;;;;;4.30;3.85;;;16.00;68.80;;;;;;5036159;28;20046;-47
2023/04/22 07:57:53;;;;;;;4.30;3.38;;;16.10;69.10;;;;;;5038387;28;20509;-46
2023/04/22 08:00:20;;;;;;;5.65;4.25;;;16.20;68.20;;;;;;5040244;28;20053;-48
2023/04/22 08:02:47;;;;;;;4.07;3.67;;;16.40;67.90;;;;;;5034070;28;20565;-50
2023/04/22 08:05:14;;;;;;;4.10;3.75;;;16.50;67.90;;;;;;5021553;28;20065;-47
2023/04/22 08:07:41;;;;;;;4.20;3.58;;;16.70;67.60;;;;;;5032782;28;20090;-45
2023/04/22 08:10:08;;;;;;;4.65;3.30;;;16.80;67.00;;;;;;5050657;28;20099;-49
2023/04/22 08:12:34;;;;;;;5.25;3.75;;;17.00;66.50;;;;;;5040865;28;20030;-49
2023/04/22 08:15:01;;;;;;;5.00;4.05;;;17.10;66.10;;;;;;5040488;28;20045;-49
2023/04/22 08:17:28;;;;;;;4.75;3.50;;;17.20;65.90;;;;;;5050470;28;20051;-49
2023/04/22 08:19:58;;;;;;;4.18;3.28;;;17.20;66.30;;;;;;5039166;28;20099;-48
2023/04/22 08:22:26;;;;;;;3.95;3.55;;;17.30;64.90;;;;;;5027458;28;20046;-45
2023/04/22 08:24:52;;;;;;;5.03;3.67;;;17.40;64.50;;;;;;5050485;28;20436;-45
2023/04/22 08:27:21;;;;;;;4.68;3.60;;;17.40;64.20;;;;;;5049954;28;20103;-47
2023/04/22 08:29:48;;;;;;;3.50;3.08;;;17.50;64.50;;;;;;5039051;28;20041;-47
2023/04/22 08:32:15;;;;;;;3.85;3.47;;;17.50;64.20;;;;;;5033621;28;20072;-47
2023/04/22 08:34:41;;;;;;;4.28;3.45;;;17.60;64.20;;;;;;5034427;28;20037;-46
2023/04/22 08:37:09;;;;;;;4.53;3.50;;;17.60;64.10;;;;;;5048505;28;20083;-50
2023/04/22 08:39:36;;;;;;;5.20;3.80;;;17.60;63.80;;;;;;5033727;28;20037;-50
2023/04/22 08:42:04;;;;;;;4.72;4.32;;;17.60;63.40;;;;;;5039783;28;20045;-49
2023/04/22 08:44:34;;;;;;;4.57;3.40;;;17.70;62.90;;;;;;5046663;28;20033;-47
2023/04/22 08:47:02;;;;;;;5.45;3.47;;;17.70;62.90;;;;;;5050371;28;20041;-50
2023/04/22 08:49:29;;;;;;;3.80;3.50;;;17.70;62.80;;;;;;5032447;28;20360;-49
2023/04/22 08:51:56;;;;;;;3.80;3.50;;;17.70;62.90;;;;;;5044021;28;20515;-48
2023/04/22 08:54:23;;;;;;;4.43;3.30;;;17.80;62.80;;;;;;5047019;28;20045;-49
2023/04/22 08:56:50;;;;;;;4.18;3.78;;;17.80;63.10;;;;;;5041533;28;20064;-48
2023/04/22 08:59:17;;;;;;;3.72;3.33;;;17.80;63.40;;;;;;5029694;28;20557;-48
2023/04/22 09:01:45;;;;;;;3.80;3.50;;;17.80;63.20;;;;;;5044296;28;20053;-47
2023/04/22 09:04:14;;;;;;;4.47;4.07;;;17.90;63.20;;;;;;5012321;28;20045;-50
2023/04/22 09:06:40;;;;;;;4.00;3.30;;;17.90;63.30;;;;;;5048394;28;20052;-49
2023/04/22 09:09:08;;;;;;;3.40;2.95;;;18.00;63.00;;;;;;5022356;28;20052;-48
2023/04/22 09:11:36;;;;;;;5.50;3.22;;;18.10;63.00;;;;;;5041391;28;20045;-50
2023/04/22 09:14:03;;;;;;;4.03;3.13;;;18.10;63.00;;;;;;5036206;28;20041;-47
2023/04/22 09:16:33;;;;;;;3.80;3.17;;;18.20;63.10;;;;;;5053935;28;20393;-46
2023/04/22 09:19:00;;;;;;;3.55;3.05;;;18.30;62.70;;;;;;5053826;28;20048;-47
2023/04/22 09:21:27;;;;;;;3.63;3.08;;;18.40;63.00;;;;;;5038439;28;20069;-49
2023/04/22 09:23:55;;;;;;;3.47;3.17;;;18.50;62.50;;;;;;5040857;28;20067;-48
2023/04/22 09:26:25;;;;;;;3.53;3.22;;;18.50;62.60;;;;;;5046524;28;20068;-49
2023/04/22 09:28:57;;;;;;;7.32;3.15;;;18.60;62.70;;;;;;5041702;28;20232;-51
2023/04/22 09:31:27;;;;;;;4.05;3.60;;;18.70;62.50;;;;;;5036343;28;20590;-46
2023/04/22 09:33:57;;;;;;;3.85;3.55;;;18.70;61.80;;;;;;5039717;28;20048;-47
2023/04/22 09:36:28;;;;;;;3.55;3.22;;;18.80;62.10;;;;;;5038808;28;20029;-48
2023/04/22 09:38:58;;;;;;;4.18;3.22;;;18.80;61.50;;;;;;5039109;28;20041;-47
2023/04/22 09:41:34;;;;;;;4.25;3.50;;;18.90;62.10;;;;;;5035930;28;20099;-47
2023/04/22 09:44:02;;;;;;;3.47;3.17;;;18.90;61.80;;;;;;5049817;28;20115;-49
2023/04/22 09:46:30;;;;;;;4.45;3.92;;;18.90;61.50;;;;;;5042446;28;20521;-50
2023/04/22 09:48:58;;;;;;;3.22;2.92;;;19.00;61.40;;;;;;5031189;28;20049;-47
2023/04/22 09:51:26;;;;;;;3.17;2.80;;;19.00;60.80;;;;;;5038875;28;20056;-46
2023/04/22 09:54:07;;;;;;;2.97;2.65;;;19.10;61.10;;;;;;5045881;28;20041;-49
2023/04/22 09:56:47;;;;;;;5.07;3.22;;;19.10;61.40;;;;;;5040571;28;20048;-46
2023/04/22 09:59:22;;;;;;;3.30;2.85;;;19.10;60.90;;;;;;5040673;28;20124;-47
2023/04/22 10:01:51;;;;;;;4.70;3.17;;;19.20;60.50;;;;;;5043678;28;20045;-48
2023/04/22 10:04:20;;;;;;;3.72;3.05;;;19.20;60.60;;;;;;5033401;28;20069;-46
2023/04/22 10:06:48;;;;;;;3.78;2.83;;;19.20;60.50;;;;;;5035197;28;20379;-50
2023/04/22 10:09:18;;;;;;;4.22;3.20;;;19.30;61.00;;;;;;5023981;28;20041;-49
2023/04/22 10:11:47;;;;;;;3.92;3.63;;;19.40;60.50;;;;;;5027182;28;20520;-50
2023/04/22 10:14:17;;;;;;;5.68;2.80;;;19.50;60.60;;;;;;5045361;28;20041;-48
2023/04/22 10:16:45;;;;;;;3.92;3.20;;;19.50;60.40;;;;;;5044325;28;20120;-47
2023/04/22 10:19:21;;;;;;;4.32;3.00;;;19.60;60.70;;;;;;5018705;28;20417;-49
2023/04/22 10:21:51;;;;;;;9.20;4.38;;;19.70;59.80;;;;;;5032594;28;20441;-48
2023/04/22 10:24:19;;;;;;;4.35;2.67;;;19.90;59.60;;;;;;5038241;28;20060;-48
2023/04/22 10:27:01;;;;;;;3.58;2.85;;;20.00;60.30;;;;;;5035151;28;20053;-49
2023/04/22 10:29:37;;;;;;;2.85;2.58;;;20.20;59.90;;;;;;5029176;28;20046;-48
2023/04/22 10:32:23;;;;;;;3.10;2.80;;;20.30;59.20;;;;;;5036506;28;20050;-48
2023/04/22 10:35:06;;;;;;;3.40;3.10;;;20.60;59.80;;;;;;5026904;28;20063;-51
2023/04/22 10:37:33;;;;;;;2.72;2.53;;;20.80;58.30;;;;;;5040858;28;20513;-50
2023/04/22 10:40:21;;;;;;;3.90;2.50;;;21.00;58.00;;;;;;5052025;28;20040;-51
2023/04/22 10:42:54;;;;;;;3.60;2.88;;;21.30;56.60;;;;;;5033202;28;20091;-51
2023/04/22 10:45:24;;;;;;;3.00;2.80;;;21.50;56.10;;;;;;5037579;28;20044;-52
2023/04/22 10:47:51;;;;;;;2.63;2.42;;;21.70;55.20;;;;;;5051277;28;20505;-49
2023/04/22 10:50:30;;;;;;;3.13;2.92;;;21.80;55.10;;;;;;5047245;28;20061;-50
2023/04/22 10:53:22;;;;;;;3.08;2.75;;;22.00;53.90;;;;;;5030132;28;20072;-48
2023/04/22 10:55:52;;;;;;;3.33;3.03;;;22.10;54.10;;;;;;5020052;28;20484;-47
2023/04/22 10:58:23;;;;;;;2.78;2.38;;;22.20;53.90;;;;;;5033252;28;20060;-51
2023/04/22 11:00:58;;;;;;;3.15;2.25;;;22.30;53.30;;;;;;5051124;28;20044;-48
2023/04/22 11:03:30;;;;;;;2.97;2.53;;;22.40;52.80;;;;;;5042612;28;20033;-50
2023/04/22 11:06:18;;;;;;;3.47;2.70;;;22.40;52.20;;;;;;5020140;28;20037;-51
2023/04/22 11:08:48;;;;;;;2.15;1.95;;;22.40;51.90;;;;;;5043799;28;20059;-48
2023/04/22 11:11:20;;;;;;;2.88;2.67;;;22.40;52.30;;;;;;5050885;28;20104;-50
2023/04/22 11:13:49;;;;;;;3.92;2.50;;;22.40;52.00;;;;;;5021783;28;20068;-50
2023/04/22 11:16:22;;;;;;;3.25;2.15;;;22.30;51.80;;;;;;5044072;28;20049;-48
2023/04/22 11:18:49;;;;;;;4.68;2.47;;;22.30;51.80;;;;;;5051604;28;20044;-48
2023/04/22 11:21:15;;;;;;;2.38;2.20;;;22.20;51.90;;;;;;5050583;28;20041;-51
2023/04/22 11:23:51;;;;;;;2.35;2.15;;;22.20;52.30;;;;;;5030288;28;20045;-51
2023/04/22 11:26:32;;;;;;;2.50;2.30;;;22.20;52.00;;;;;;5043683;28;20060;-50
2023/04/22 11:29:00;;;;;;;3.28;2.42;;;22.30;51.20;;;;;;5051728;28;20037;-51
2023/04/22 11:31:29;;;;;;;5.55;2.55;;;22.40;52.10;;;;;;5008628;28;20042;-47
2023/04/22 11:33:59;;;;;;;3.00;1.90;;;22.50;51.60;;;;;;5030513;28;20049;-50
2023/04/22 11:36:26;;;;;;;2.50;2.30;;;22.60;51.20;;;;;;5038295;28;20033;-48
2023/04/22 11:38:54;;;;;;;2.33;2.10;;;22.70;50.40;;;;;;5030481;28;20037;-48
2023/04/22 11:41:22;;;;;;;2.92;2.42;;;22.70;50.10;;;;;;5046756;28;20049;-48
2023/04/22 11:43:49;;;;;;;2.40;2.20;;;22.80;49.60;;;;;;5049744;28;20232;-49
2023/04/22 11:46:15;;;;;;;2.58;2.38;;;22.80;49.80;;;;;;5033422;28;20052;-49
2023/04/22 11:48:49;;;;;;;2.65;2.08;;;22.70;49.60;;;;;;5010920;28;20047;-49
2023/04/22 11:51:16;;;;;;;3.42;2.72;;;22.70;49.70;;;;;;5028814;28;20489;-49
2023/04/22 11:53:49;;;;;;;2.30;2.10;;;22.70;49.70;;;;;;5049751;28;20033;-50
2023/04/22 11:56:16;;;;;;;5.00;2.20;;;22.70;49.50;;;;;;5047386;28;20032;-51
2023/04/22 11:58:42;;;;;;;2.72;2.28;;;22.70;50.10;;;;;;5029795;28;20042;-52
2023/04/22 12:01:12;;;;;;;3.20;2.38;;;22.70;49.80;;;;;;5036379;28;20033;-48
2023/04/22 12:03:41;;;;;;;3.13;2.40;;;22.70;49.60;;;;;;5037862;28;20041;-49
2023/04/22 12:06:08;;;;;;;3.40;2.63;;;22.80;49.90;;;;;;5041289;28;20037;-49
2023/04/22 12:08:42;;;;;;;5.35;3.45;;;22.80;49.70;;;;;;5049322;28;20033;-48
2023/04/22 12:11:10;;;;;;;2.97;2.67;;;22.90;49.90;;;;;;5040941;28;20402;-49
2023/04/22 12:13:37;;;;;;;3.00;2.70;;;23.00;49.80;;;;;;5033573;28;20052;-50
2023/04/22 12:16:08;;;;;;;4.20;2.55;;;23.10;49.40;;;;;;5036406;28;20061;-51
2023/04/22 12:18:50;;;;;;;5.60;2.47;;;23.20;48.90;;;;;;5050247;28;20174;-52
2023/04/22 12:21:24;;;;;;;2.60;2.30;;;23.20;48.80;;;;;;5037066;28;20091;-47
2023/04/22 12:23:57;;;;;;;4.28;2.60;;;23.30;49.00;;;;;;5042253;28;20099;-50
2023/04/22 12:26:25;;;;;;;3.58;2.38;;;23.30;49.00;;;;;;5048978;28;20040;-50
2023/04/22 12:28:55;;;;;;;2.78;2.28;;;23.40;48.60;;;;;;5040449;28;20044;-51
2023/04/22 12:31:22;;;;;;;2.60;2.38;;;23.40;48.40;;;;;;5039132;28;20552;-51
2023/04/22 12:33:52;;;;;;;2.22;2.03;;;23.40;48.20;;;;;;5022142;28;20675;-51
2023/04/22 12:36:23;;;;;;;2.60;2.40;;;23.40;48.10;;;;;;5038560;28;20091;-47
2023/04/22 12:38:50;;;;;;;2.22;2.03;;;23.40;47.80;;;;;;5038701;28;20045;-48
2023/04/22 12:41:21;;;;;;;2.03;1.83;;;23.30;47.80;;;;;;5033265;28;20044;-50
2023/04/22 12:43:48;;;;;;;3.15;1.80;;;23.30;47.90;;;;;;5025865;28;20033;-47
2023/04/22 12:46:16;;;;;;;4.68;2.05;;;23.20;48.20;;;;;;5033781;28;20433;-49
2023/04/22 12:48:44;;;;;;;3.35;1.80;;;23.00;49.10;;;;;;5033342;28;20037;-52
2023/04/22 12:51:11;;;;;;;1.90;1.80;;;22.90;49.60;;;;;;5045837;28;20064;-52
2023/04/22 12:53:37;;;;;;;3.45;1.77;;;22.80;49.90;;;;;;5044343;28;20058;-52
2023/04/22 12:56:04;;;;;;;2.60;1.80;;;22.70;51.20;;;;;;5037181;28;20037;-48
2023/04/22 12:58:31;;;;;;;3.08;2.00;;;22.60;51.50;;;;;;5043046;28;20444;-50
2023/04/22 13:00:58;;;;;;;2.03;1.77;;;22.50;52.40;;;;;;5049268;28;20033;-51